createdAt,value
2023-07-21T00:01:21.306Z,47.54
2023-07-21T00:04:25.889Z,48.07
2023-07-21T00:07:27.936Z,48.13
2023-07-21T00:10:30.324Z,48.36
2023-07-21T00:13:37.219Z,48.21
2023-07-21T00:16:39.665Z,48.22
2023-07-21T00:19:42.594Z,48.47
2023-07-21T00:22:45.495Z,48.45
2023-07-21T00:25:48.502Z,48.51
2023-07-21T00:28:50.991Z,47.63
2023-07-21T00:31:54.711Z,47.71
2023-07-21T00:34:56.854Z,47.14
2023-07-21T00:38:02.550Z,47.50
2023-07-21T00:41:05.164Z,46.80
2023-07-21T00:44:09.722Z,46.82
2023-07-21T00:47:14.303Z,46.79
2023-07-21T00:50:18.323Z,46.85
2023-07-21T00:53:21.784Z,47.51
2023-07-21T00:56:25.749Z,47.66
2023-07-21T00:59:28.520Z,48.17
2023-07-21T01:02:33.842Z,47.06
2023-07-21T01:05:42.507Z,46.72
2023-07-21T01:08:46.045Z,46.90
2023-07-21T01:11:48.497Z,46.72
2023-07-21T01:14:51.012Z,46.76
2023-07-21T01:17:55.206Z,46.49
2023-07-21T01:20:58.645Z,46.88
2023-07-21T01:24:09.798Z,46.76
2023-07-21T01:27:14.764Z,47.48
2023-07-21T01:30:20.775Z,47.76
2023-07-21T01:33:24.445Z,47.75
2023-07-21T01:36:27.912Z,48.35
2023-07-21T01:39:32.480Z,48.73
2023-07-21T01:42:35.314Z,48.74
2023-07-21T01:45:38.802Z,49.25
2023-07-21T01:48:42.193Z,49.55
2023-07-21T01:51:46.142Z,49.47
2023-07-21T01:54:55.031Z,49.87
2023-07-21T01:58:04.241Z,50.01
2023-07-21T02:01:07.512Z,49.92
2023-07-21T02:04:09.683Z,51.42
2023-07-21T02:07:12.753Z,52.10
2023-07-21T02:10:14.962Z,52.30
2023-07-21T02:13:17.260Z,51.44
2023-07-21T02:16:19.343Z,51.04
2023-07-21T02:19:21.890Z,50.11
2023-07-21T02:22:23.983Z,50.41
2023-07-21T02:25:26.141Z,51.02
2023-07-21T02:28:28.332Z,50.60
2023-07-21T02:31:30.583Z,50.82
2023-07-21T02:34:32.920Z,50.51
2023-07-21T02:37:35.677Z,50.64
2023-07-21T02:40:38.390Z,50.07
2023-07-21T02:43:43.594Z,49.37
2023-07-21T02:46:46.453Z,48.59
2023-07-21T02:49:51.803Z,49.75
2023-07-21T02:52:55.899Z,50.44
2023-07-21T02:56:01.815Z,50.08
2023-07-21T02:59:04.196Z,49.85
2023-07-21T03:02:07.067Z,49.59
2023-07-21T03:05:10.138Z,50.04
2023-07-21T03:08:15.753Z,49.76
2023-07-21T03:11:18.967Z,49.54
2023-07-21T03:14:21.262Z,49.98
2023-07-21T03:17:23.577Z,50.40
2023-07-21T03:20:26.943Z,50.83
2023-07-21T03:23:29.260Z,50.74
2023-07-21T03:26:31.824Z,50.69
2023-07-21T03:29:34.236Z,51.00
2023-07-21T03:32:47.778Z,50.66
2023-07-21T03:35:59.365Z,51.41
2023-07-21T03:39:06.924Z,50.58
2023-07-21T03:42:14.528Z,50.01
2023-07-21T03:45:17.235Z,50.36
2023-07-21T03:48:19.952Z,50.60
2023-07-21T03:51:22.494Z,51.04
2023-07-21T03:54:25.154Z,51.09
2023-07-21T03:57:27.622Z,51.29
2023-07-21T04:00:31.632Z,51.32
2023-07-21T04:03:37.109Z,51.62
2023-07-21T04:06:39.897Z,51.15
2023-07-21T04:09:42.888Z,51.21
2023-07-21T04:12:47.627Z,51.05
2023-07-21T04:15:53.173Z,51.50
2023-07-21T04:18:55.389Z,52.04
2023-07-21T04:21:57.997Z,52.21
2023-07-21T04:25:00.375Z,53.70
2023-07-21T04:28:02.973Z,53.91
2023-07-21T04:31:05.231Z,54.58
2023-07-21T04:34:07.900Z,55.37
2023-07-21T04:37:11.162Z,55.75
2023-07-21T04:40:13.536Z,56.23
2023-07-21T04:43:17.111Z,56.60
2023-07-21T04:46:19.969Z,56.71
2023-07-21T04:49:22.635Z,56.75
2023-07-21T04:52:26.194Z,56.55
2023-07-21T04:55:30.838Z,56.37
2023-07-21T04:58:35.754Z,55.65
2023-07-21T05:01:38.260Z,56.33
2023-07-21T05:04:41.916Z,55.65
2023-07-21T05:07:56.794Z,55.60
2023-07-21T05:11:03.363Z,55.28
2023-07-21T05:14:07.830Z,55.33
2023-07-21T05:17:10.784Z,55.66
2023-07-21T05:20:13.787Z,55.47
2023-07-21T05:23:21.640Z,55.09
2023-07-21T05:26:24.102Z,54.77
2023-07-21T05:29:28.750Z,54.45
2023-07-21T05:32:36.930Z,54.29
2023-07-21T05:35:39.983Z,54.79
2023-07-21T05:38:42.951Z,54.67
2023-07-21T05:41:45.221Z,53.62
2023-07-21T05:44:48.295Z,53.67
2023-07-21T05:47:54.047Z,53.60
2023-07-21T05:50:57.404Z,53.34
2023-07-21T05:54:02.858Z,53.48
2023-07-21T05:57:07.197Z,53.44
2023-07-21T06:00:16.924Z,53.83
2023-07-21T06:03:21.264Z,54.06
2023-07-21T06:06:25.692Z,54.83
2023-07-21T06:09:29.679Z,54.43
2023-07-21T06:12:32.688Z,54.49
2023-07-21T06:15:39.271Z,54.67
2023-07-21T06:18:42.786Z,55.16
2023-07-21T06:21:45.206Z,55.47
2023-07-21T06:24:54.970Z,55.83
2023-07-21T06:27:59.935Z,55.18
2023-07-21T06:31:02.190Z,55.63
2023-07-21T06:34:09.361Z,56.03
2023-07-21T06:37:11.570Z,56.00
2023-07-21T06:40:13.903Z,56.43
2023-07-21T06:43:16.219Z,56.40
2023-07-21T06:46:19.536Z,55.84
2023-07-21T06:49:22.004Z,56.33
2023-07-21T06:52:25.678Z,56.50
2023-07-21T06:55:27.716Z,55.96
2023-07-21T06:58:29.928Z,56.57
2023-07-21T07:01:32.874Z,55.23
2023-07-21T07:04:35.834Z,55.70
2023-07-21T07:07:39.229Z,55.63
2023-07-21T07:10:41.137Z,55.82
2023-07-21T07:13:43.186Z,56.06
2023-07-21T07:16:45.544Z,56.13
2023-07-21T07:19:47.847Z,54.90
2023-07-21T07:22:51.412Z,54.60
2023-07-21T07:25:55.296Z,54.28
2023-07-21T07:28:58.600Z,54.24
2023-07-21T07:32:01.214Z,54.39
2023-07-21T07:35:05.572Z,54.83
2023-07-21T07:38:07.719Z,54.76
2023-07-21T07:41:11.156Z,55.03
2023-07-21T07:44:20.222Z,54.75
2023-07-21T07:47:31.719Z,54.91
2023-07-21T07:50:40.637Z,54.82
2023-07-21T07:53:42.950Z,55.14
2023-07-21T07:56:49.106Z,54.62
2023-07-21T07:59:53.465Z,53.59
2023-07-21T08:02:56.230Z,53.82
2023-07-21T08:06:00.350Z,53.84
2023-07-21T08:09:04.456Z,53.35
2023-07-21T08:12:07.625Z,52.23
2023-07-21T08:15:11.011Z,51.80
2023-07-21T08:18:13.698Z,51.49
2023-07-21T08:21:29.821Z,51.08
2023-07-21T08:24:37.052Z,51.84
2023-07-21T08:27:39.595Z,52.29
2023-07-21T08:30:56.532Z,52.55
2023-07-21T08:33:59.651Z,52.08
2023-07-21T08:37:02.003Z,52.03
2023-07-21T08:40:05.812Z,51.84
2023-07-21T08:43:09.090Z,51.48
2023-07-21T08:46:12.111Z,51.01
2023-07-21T08:49:20.748Z,51.69
2023-07-21T08:52:23.421Z,50.60
2023-07-21T08:55:26.793Z,51.66
2023-07-21T08:58:29.696Z,50.36
2023-07-21T09:01:31.874Z,51.17
2023-07-21T09:04:34.294Z,51.33
2023-07-21T09:07:37.723Z,50.26
2023-07-21T09:10:40.347Z,50.12
2023-07-21T09:13:52.844Z,49.54
2023-07-21T09:16:59.087Z,49.15
2023-07-21T09:20:08.650Z,47.63
2023-07-21T09:23:11.306Z,48.19
2023-07-21T09:26:14.057Z,48.29
2023-07-21T09:29:20.573Z,48.44
2023-07-21T09:32:24.015Z,48.09
2023-07-21T09:35:31.289Z,47.73
2023-07-21T09:38:35.869Z,47.03
2023-07-21T09:41:40.736Z,46.69
2023-07-21T09:44:44.187Z,46.92
2023-07-21T09:47:47.691Z,46.44
2023-07-21T09:50:49.866Z,46.97
2023-07-21T09:53:54.467Z,45.47
2023-07-21T09:56:58.475Z,44.72
2023-07-21T10:00:06.564Z,44.34
2023-07-21T10:03:12.982Z,42.57
2023-07-21T10:06:24.337Z,43.17
2023-07-21T10:09:28.277Z,43.86
2023-07-21T10:12:44.319Z,44.33
2023-07-21T10:15:50.974Z,44.70
2023-07-21T10:19:13.772Z,44.93
2023-07-21T10:22:29.705Z,42.69
2023-07-21T10:26:06.978Z,40.63
2023-07-21T10:29:20.183Z,39.39
2023-07-21T10:32:22.780Z,40.63
2023-07-21T10:35:52.946Z,41.45
2023-07-21T10:39:05.770Z,41.92
2023-07-21T10:42:10.453Z,42.19
2023-07-21T10:45:30.256Z,42.25
2023-07-21T10:48:38.823Z,42.32
2023-07-21T10:51:46.319Z,40.90
2023-07-21T10:55:00.365Z,41.06
2023-07-21T10:58:19.155Z,41.89
2023-07-21T11:01:31.196Z,43.18
2023-07-21T11:04:40.858Z,42.69
2023-07-21T11:07:48.661Z,43.28
2023-07-21T11:10:55.624Z,43.66
2023-07-21T11:14:00.439Z,43.73
2023-07-21T11:17:05.442Z,42.54
2023-07-21T11:20:12.201Z,43.77
2023-07-21T11:23:14.900Z,44.29
2023-07-21T11:26:21.649Z,44.91
2023-07-21T11:29:27.422Z,46.16
2023-07-21T11:32:29.683Z,46.53
2023-07-21T11:35:34.942Z,46.51
2023-07-21T11:38:38.440Z,46.71
2023-07-21T11:41:45.347Z,46.84
2023-07-21T11:44:50.514Z,49.74
2023-07-21T11:47:53.228Z,49.90
2023-07-21T11:50:57.096Z,49.45
2023-07-21T11:54:01.299Z,48.45
2023-07-21T11:57:03.656Z,47.92
2023-07-21T12:00:12.737Z,48.62
2023-07-21T12:03:15.010Z,48.55
2023-07-21T12:06:17.222Z,49.11
2023-07-21T12:09:22.392Z,49.57
2023-07-21T12:12:25.897Z,50.49
2023-07-21T12:15:31.174Z,49.62
2023-07-21T12:18:34.702Z,48.36
2023-07-21T12:21:44.287Z,47.98
2023-07-21T12:24:49.865Z,47.02
2023-07-21T12:27:52.332Z,45.92
2023-07-21T12:30:55.442Z,46.85
2023-07-21T12:33:58.230Z,46.93
2023-07-21T12:37:04.398Z,45.76
2023-07-21T12:40:14.932Z,44.94
2023-07-21T12:43:24.120Z,45.69
2023-07-21T12:46:27.373Z,46.67
2023-07-21T12:49:30.402Z,46.78
2023-07-21T12:52:35.737Z,47.39
2023-07-21T12:55:46.170Z,46.96
2023-07-21T12:58:49.041Z,47.06
2023-07-21T13:01:51.896Z,47.30
2023-07-21T13:04:55.443Z,46.12
2023-07-21T13:07:58.073Z,46.84
2023-07-21T13:11:02.662Z,47.92
2023-07-21T13:14:05.296Z,47.65
2023-07-21T13:17:07.484Z,46.52
2023-07-21T13:20:15.333Z,46.76
2023-07-21T13:23:22.623Z,45.84
2023-07-21T13:26:26.640Z,46.59
2023-07-21T13:29:28.859Z,47.88
2023-07-21T13:32:37.116Z,47.53
2023-07-21T13:35:40.666Z,45.86
2023-07-21T13:38:42.879Z,46.20
2023-07-21T13:41:46.274Z,46.35
2023-07-21T13:44:49.787Z,45.48
2023-07-21T13:47:52.278Z,44.28
2023-07-21T13:50:58.700Z,45.12
2023-07-21T13:54:01.266Z,44.21
2023-07-21T13:57:03.832Z,44.55
2023-07-21T14:00:19.512Z,44.67
2023-07-21T14:03:23.178Z,43.08
2023-07-21T14:06:25.738Z,44.62
2023-07-21T14:09:28.558Z,45.71
2023-07-21T14:12:33.684Z,45.96
2023-07-21T14:15:37.430Z,46.34
2023-07-21T14:18:39.845Z,47.31
2023-07-21T14:21:45.087Z,46.92
2023-07-21T14:24:47.598Z,47.37
2023-07-21T14:27:50.107Z,47.20
2023-07-21T14:30:55.224Z,47.40
2023-07-21T14:33:58.541Z,47.39
2023-07-21T14:37:01.560Z,47.77
2023-07-21T14:40:12.235Z,48.07
2023-07-21T14:43:14.312Z,47.70
2023-07-21T14:46:17.245Z,46.83
2023-07-21T14:49:25.446Z,45.85
2023-07-21T14:52:28.431Z,44.94
2023-07-21T14:55:30.699Z,44.49
2023-07-21T14:58:33.657Z,44.74
2023-07-21T15:01:36.528Z,44.55
2023-07-21T15:04:39.308Z,43.98
2023-07-21T15:07:42.673Z,43.75
2023-07-21T15:10:46.281Z,43.87
2023-07-21T15:13:50.069Z,43.99
2023-07-21T15:16:58.493Z,43.83
2023-07-21T15:20:02.811Z,44.52
2023-07-21T15:23:06.036Z,44.66
2023-07-21T15:26:08.595Z,45.52
2023-07-21T15:29:13.840Z,45.69
2023-07-21T15:32:16.485Z,45.66
2023-07-21T15:35:18.851Z,45.59
2023-07-21T15:38:21.210Z,45.08
2023-07-21T15:41:24.735Z,45.65
2023-07-21T15:44:27.456Z,44.82
2023-07-21T15:47:29.845Z,44.42
2023-07-21T15:50:32.056Z,44.17
2023-07-21T15:53:34.316Z,43.59
2023-07-21T15:56:36.693Z,43.82
2023-07-21T15:59:38.937Z,43.74
2023-07-21T16:02:42.126Z,43.68
2023-07-21T16:05:44.269Z,43.91
2023-07-21T16:08:47.960Z,43.70
2023-07-21T16:11:52.677Z,44.08
2023-07-21T16:14:54.750Z,43.83
2023-07-21T16:17:57.033Z,43.55
2023-07-21T16:21:02.914Z,44.10
2023-07-21T16:24:07.044Z,44.09
2023-07-21T16:27:10.078Z,44.11
2023-07-21T16:30:12.830Z,43.95
2023-07-21T16:33:15.325Z,43.98
2023-07-21T16:36:20.369Z,44.13
2023-07-21T16:39:23.008Z,44.17
2023-07-21T16:42:25.458Z,44.40
2023-07-21T16:45:28.660Z,44.94
2023-07-21T16:48:30.954Z,45.14
2023-07-21T16:51:33.261Z,45.34
2023-07-21T16:54:36.908Z,45.66
2023-07-21T16:57:39.503Z,45.89
2023-07-21T17:00:41.925Z,46.38
2023-07-21T17:03:45.117Z,46.55
2023-07-21T17:06:47.608Z,47.20
2023-07-21T17:09:52.837Z,47.53
2023-07-21T17:12:57.430Z,47.79
2023-07-21T17:15:59.957Z,48.24
2023-07-21T17:19:02.258Z,49.56
2023-07-21T17:22:05.024Z,49.53
2023-07-21T17:25:07.705Z,50.48
2023-07-21T17:28:10.018Z,50.56
2023-07-21T17:31:12.304Z,56.96
2023-07-21T17:34:15.800Z,61.00
2023-07-21T17:37:18.450Z,63.02
2023-07-21T17:40:20.603Z,64.74
2023-07-21T17:43:23.277Z,67.52
2023-07-21T17:46:25.614Z,68.74
2023-07-21T17:49:29.446Z,71.00
2023-07-21T17:52:31.589Z,68.13
2023-07-21T17:55:33.524Z,68.81
2023-07-21T17:58:37.809Z,68.57
2023-07-21T18:01:40.099Z,71.00
2023-07-21T18:04:42.208Z,73.48
2023-07-21T18:07:44.192Z,74.54
2023-07-21T18:10:46.115Z,75.21
2023-07-21T18:13:48.463Z,77.41
2023-07-21T18:16:50.417Z,77.39
2023-07-21T18:19:53.528Z,77.82
2023-07-21T18:22:57.094Z,77.87
2023-07-21T18:25:59.848Z,79.86
2023-07-21T18:29:02.103Z,77.75
2023-07-21T18:32:05.697Z,79.60
2023-07-21T18:35:08.092Z,79.58
2023-07-21T18:38:10.750Z,82.24
2023-07-21T18:41:15.233Z,81.43
2023-07-21T18:44:18.573Z,83.34
2023-07-21T18:47:20.850Z,83.37
2023-07-21T18:50:24.084Z,81.88
2023-07-21T18:53:26.710Z,82.73
2023-07-21T18:56:28.700Z,82.61
2023-07-21T18:59:31.105Z,81.88
2023-07-21T19:02:33.272Z,81.30
2023-07-21T19:05:36.646Z,81.87
2023-07-21T19:08:38.978Z,84.26
2023-07-21T19:11:41.153Z,82.84
2023-07-21T19:14:49.046Z,83.14
2023-07-21T19:17:51.255Z,83.44
2023-07-21T19:20:53.343Z,83.99
2023-07-21T19:23:55.398Z,82.81
2023-07-21T19:26:58.464Z,83.01
2023-07-21T19:30:01.496Z,83.14
2023-07-21T19:33:03.701Z,83.41
2023-07-21T19:36:06.641Z,84.84
2023-07-21T19:39:08.771Z,84.20
2023-07-21T19:42:11.127Z,84.83
2023-07-21T19:45:15.745Z,83.49
2023-07-21T19:48:18.065Z,84.38
2023-07-21T19:51:20.302Z,84.53
2023-07-21T19:54:27.877Z,84.57
2023-07-21T19:57:30.216Z,88.56
2023-07-21T20:00:32.184Z,84.39
2023-07-21T20:03:34.418Z,82.11
2023-07-21T20:06:36.528Z,83.15
2023-07-21T20:09:39.892Z,83.42
2023-07-21T20:12:42.397Z,83.36
2023-07-21T20:15:45.775Z,83.21
2023-07-21T20:18:48.079Z,83.63
2023-07-21T20:21:51.466Z,82.24
2023-07-21T20:24:53.848Z,82.39
2023-07-21T20:28:03.572Z,84.59
2023-07-21T20:31:05.957Z,82.62
2023-07-21T20:34:08.636Z,82.96
2023-07-21T20:37:12.304Z,82.44
2023-07-21T20:40:15.551Z,82.30
2023-07-21T20:43:17.547Z,81.78
2023-07-21T20:46:20.807Z,80.69
2023-07-21T20:49:22.983Z,81.45
2023-07-21T20:52:25.186Z,81.27
2023-07-21T20:55:27.354Z,80.09
2023-07-21T20:58:29.454Z,79.50
2023-07-21T21:01:33.014Z,79.55
2023-07-21T21:04:35.234Z,80.94
2023-07-21T21:07:37.575Z,81.68
2023-07-21T21:10:42.319Z,83.14
2023-07-21T21:13:47.008Z,84.74
2023-07-21T21:16:49.150Z,84.90
2023-07-21T21:19:51.599Z,85.46
2023-07-21T21:23:00.432Z,85.63
2023-07-21T21:26:02.905Z,85.38
2023-07-21T21:29:05.374Z,85.56
2023-07-21T21:32:08.284Z,84.79
2023-07-21T21:35:10.968Z,84.40
2023-07-21T21:38:13.254Z,84.22
2023-07-21T21:41:17.465Z,84.70
2023-07-21T21:44:20.429Z,85.40
2023-07-21T21:47:22.600Z,85.96
2023-07-21T21:50:24.733Z,86.27
2023-07-21T21:53:26.803Z,85.54
2023-07-21T21:56:29.485Z,84.01
2023-07-21T21:59:32.456Z,85.12
2023-07-21T22:02:35.640Z,85.37
2023-07-21T22:05:37.864Z,86.40
2023-07-21T22:08:40.603Z,84.25
2023-07-21T22:11:42.743Z,84.33
2023-07-21T22:14:56.160Z,84.22
2023-07-21T22:17:59.702Z,83.63
2023-07-21T22:21:04.623Z,82.93
2023-07-21T22:24:07.074Z,82.68
2023-07-21T22:27:09.267Z,82.90
2023-07-21T22:30:11.742Z,83.27
2023-07-21T22:33:13.899Z,82.90
2023-07-21T22:36:18.535Z,82.83
2023-07-21T22:39:20.480Z,83.23
2023-07-21T22:42:23.477Z,83.13
2023-07-21T22:45:25.700Z,83.08
2023-07-21T22:48:32.004Z,82.80
2023-07-21T22:51:34.323Z,82.34
2023-07-21T22:54:36.683Z,82.61
2023-07-21T22:57:38.940Z,83.68
2023-07-21T23:00:41.506Z,83.65
2023-07-21T23:03:43.554Z,83.59
2023-07-21T23:06:47.732Z,83.65
2023-07-21T23:09:50.364Z,82.94
2023-07-21T23:12:55.117Z,82.91
2023-07-21T23:15:57.105Z,82.61
2023-07-21T23:18:59.462Z,82.87
2023-07-21T23:22:01.783Z,83.14
2023-07-21T23:25:04.239Z,82.56
2023-07-21T23:28:06.937Z,82.61
2023-07-21T23:31:10.066Z,83.28
2023-07-21T23:34:12.446Z,83.42
2023-07-21T23:37:14.613Z,82.76
2023-07-21T23:40:17.680Z,82.54
2023-07-21T23:43:19.921Z,82.32
2023-07-21T23:46:22.109Z,82.00
2023-07-21T23:49:24.230Z,81.90
2023-07-21T23:52:26.394Z,82.14
2023-07-21T23:55:28.748Z,82.25
2023-07-21T23:58:30.893Z,83.20
